createdAt,value
2023-02-15T00:00:45.665Z,100.00
2023-02-15T00:06:04.915Z,100.00
2023-02-15T00:11:09.374Z,100.00
2023-02-15T00:16:13.860Z,100.00
2023-02-15T00:21:16.609Z,100.00
2023-02-15T00:26:19.313Z,100.00
2023-02-15T00:31:22.523Z,100.00
2023-02-15T00:36:25.553Z,100.00
2023-02-15T00:41:28.595Z,100.00
2023-02-15T00:46:32.165Z,100.00
2023-02-15T00:51:35.917Z,100.00
2023-02-15T00:56:38.712Z,100.00
2023-02-15T01:01:41.444Z,100.00
2023-02-15T01:06:45.022Z,100.00
2023-02-15T01:11:47.827Z,100.00
2023-02-15T01:16:50.524Z,100.00
2023-02-15T01:21:53.230Z,100.00
2023-02-15T01:26:55.983Z,100.00
2023-02-15T01:31:58.724Z,100.00
2023-02-15T01:37:01.507Z,100.00
2023-02-15T01:42:04.537Z,100.00
2023-02-15T01:47:11.641Z,100.00
2023-02-15T01:52:18.319Z,100.00
2023-02-15T01:57:25.228Z,100.00
2023-02-15T02:02:29.543Z,100.00
2023-02-15T02:07:37.298Z,100.00
2023-02-15T02:12:43.480Z,100.00
2023-02-15T02:18:07.075Z,100.00
2023-02-15T02:23:10.279Z,100.00
2023-02-15T02:28:47.393Z,100.00
2023-02-15T02:33:56.435Z,100.00
2023-02-15T02:39:18.081Z,100.00
2023-02-15T02:44:29.894Z,100.00
2023-02-15T02:49:37.709Z,100.00
2023-02-15T02:54:40.715Z,100.00
2023-02-15T02:59:46.488Z,100.00
2023-02-15T03:05:00.043Z,100.00
2023-02-15T03:10:06.021Z,100.00
2023-02-15T03:15:19.625Z,100.00
2023-02-15T03:20:31.885Z,100.00
2023-02-15T03:25:40.958Z,100.00
2023-02-15T03:30:47.946Z,100.00
2023-02-15T03:35:58.431Z,100.00
2023-02-15T03:41:10.903Z,100.00
2023-02-15T03:46:16.859Z,100.00
2023-02-15T03:51:36.634Z,100.00
2023-02-15T03:56:42.865Z,100.00
2023-02-15T04:01:58.529Z,100.00
2023-02-15T04:07:03.062Z,100.00
2023-02-15T04:12:06.071Z,100.00
2023-02-15T04:17:10.148Z,100.00
2023-02-15T04:22:31.533Z,100.00
2023-02-15T04:27:34.640Z,100.00
2023-02-15T04:32:37.749Z,100.00
2023-02-15T04:37:41.723Z,100.00
2023-02-15T04:42:44.685Z,100.00
2023-02-15T04:47:47.586Z,100.00
2023-02-15T04:52:50.492Z,100.00
2023-02-15T04:57:53.398Z,100.00
2023-02-15T05:02:56.200Z,100.00
2023-02-15T05:07:59.511Z,100.00
2023-02-15T05:13:02.414Z,100.00
2023-02-15T05:18:06.957Z,100.00
2023-02-15T05:23:10.073Z,100.00
2023-02-15T05:28:21.990Z,100.00
2023-02-15T05:33:24.889Z,100.00
2023-02-15T05:38:27.999Z,100.00
2023-02-15T05:43:31.417Z,100.00
2023-02-15T05:48:35.227Z,100.00
2023-02-15T05:53:39.396Z,100.00
2023-02-15T05:58:43.051Z,100.00
2023-02-15T06:03:47.197Z,100.00
2023-02-15T06:08:50.252Z,100.00
2023-02-15T06:13:53.145Z,100.00
2023-02-15T06:18:56.149Z,100.00
2023-02-15T06:23:59.054Z,100.00
2023-02-15T06:29:02.272Z,100.00
2023-02-15T06:34:05.291Z,100.00
2023-02-15T06:39:08.432Z,100.00
2023-02-15T06:44:11.288Z,100.00
2023-02-15T06:49:14.398Z,100.00
2023-02-15T06:54:17.403Z,100.00
2023-02-15T06:59:20.303Z,100.00
2023-02-15T07:04:23.617Z,100.00
2023-02-15T07:09:27.249Z,100.00
2023-02-15T07:14:30.759Z,100.00
2023-02-15T07:19:33.652Z,100.00
2023-02-15T07:24:36.658Z,100.00
2023-02-15T07:29:39.563Z,100.00
2023-02-15T07:34:42.468Z,100.00
2023-02-15T07:39:45.370Z,100.00
2023-02-15T07:44:48.990Z,100.00
2023-02-15T07:49:52.003Z,100.00
2023-02-15T07:54:55.006Z,99.93
2023-02-15T07:59:57.913Z,99.86
2023-02-15T08:05:00.722Z,99.86
2023-02-15T08:10:03.839Z,99.55
2023-02-15T08:15:07.639Z,99.76
2023-02-15T08:20:11.438Z,99.98
2023-02-15T08:25:14.492Z,100.00
2023-02-15T08:30:17.421Z,99.99
2023-02-15T08:35:20.296Z,99.87
2023-02-15T08:40:23.301Z,99.79
2023-02-15T08:45:26.919Z,99.26
2023-02-15T08:50:29.949Z,98.26
2023-02-15T08:55:32.837Z,97.93
2023-02-15T09:00:35.837Z,97.37
2023-02-15T09:05:38.743Z,97.41
2023-02-15T09:10:41.644Z,97.20
2023-02-15T09:15:44.548Z,96.36
2023-02-15T09:20:47.450Z,95.82
2023-02-15T09:25:50.356Z,94.97
2023-02-15T09:30:54.239Z,94.27
2023-02-15T09:35:58.129Z,93.79
2023-02-15T09:41:11.072Z,93.20
2023-02-15T09:47:00.753Z,92.84
2023-02-15T09:52:18.914Z,92.45
2023-02-15T09:57:32.744Z,92.43
2023-02-15T10:02:37.221Z,91.40
2023-02-15T10:08:12.173Z,91.13
2023-02-15T10:13:48.993Z,90.94
2023-02-15T10:19:05.801Z,90.04
2023-02-15T10:24:48.705Z,89.18
2023-02-15T10:30:10.739Z,89.68
2023-02-15T10:35:27.218Z,89.44
2023-02-15T10:40:52.241Z,89.29
2023-02-15T10:46:04.348Z,89.45
2023-02-15T10:51:17.915Z,89.75
2023-02-15T10:56:47.550Z,89.81
2023-02-15T11:02:03.049Z,89.36
2023-02-15T11:07:13.203Z,89.66
2023-02-15T11:12:22.683Z,89.97
2023-02-15T11:17:46.985Z,90.48
2023-02-15T11:22:54.448Z,90.48
2023-02-15T11:27:57.837Z,90.69
2023-02-15T11:33:07.114Z,90.41
2023-02-15T11:38:24.824Z,89.90
2023-02-15T11:43:38.086Z,88.90
2023-02-15T11:48:41.105Z,88.81
2023-02-15T11:53:45.915Z,88.66
2023-02-15T11:58:52.594Z,88.23
2023-02-15T12:04:25.207Z,87.92
2023-02-15T12:09:37.231Z,87.34
2023-02-15T12:14:51.700Z,87.35
2023-02-15T12:19:58.836Z,87.71
2023-02-15T12:25:05.683Z,87.98
2023-02-15T12:30:16.898Z,87.42
2023-02-15T12:35:30.197Z,87.21
2023-02-15T12:40:36.097Z,87.57
2023-02-15T12:45:39.443Z,88.11
2023-02-15T12:50:54.376Z,88.22
2023-02-15T12:55:59.808Z,88.03
2023-02-15T13:01:04.821Z,88.54
2023-02-15T13:06:09.534Z,88.77
2023-02-15T13:11:13.685Z,88.26
2023-02-15T13:16:21.049Z,88.03
2023-02-15T13:21:29.200Z,88.59
2023-02-15T13:26:33.710Z,89.07
2023-02-15T13:31:37.486Z,89.45
2023-02-15T13:37:01.537Z,89.47
2023-02-15T13:42:15.700Z,89.72
2023-02-15T13:47:39.027Z,89.97
2023-02-15T13:53:08.303Z,90.11
2023-02-15T13:58:20.015Z,90.14
2023-02-15T14:03:35.724Z,90.14
2023-02-15T14:09:01.971Z,89.87
2023-02-15T14:14:49.830Z,90.13
2023-02-15T14:20:03.199Z,90.55
2023-02-15T14:25:30.070Z,91.00
2023-02-15T14:30:37.866Z,91.39
2023-02-15T14:35:43.634Z,91.42
2023-02-15T14:41:03.661Z,91.81
2023-02-15T14:46:32.139Z,92.21
2023-02-15T14:51:41.195Z,92.28
2023-02-15T14:56:45.593Z,92.56
2023-02-15T15:02:10.858Z,92.75
2023-02-15T15:07:23.245Z,92.91
2023-02-15T15:12:26.196Z,92.41
2023-02-15T15:17:35.308Z,92.33
2023-02-15T15:22:38.450Z,92.78
2023-02-15T15:27:55.891Z,92.43
2023-02-15T15:33:02.684Z,92.52
2023-02-15T15:38:32.830Z,92.30
2023-02-15T15:44:27.344Z,92.58
2023-02-15T15:49:33.733Z,92.93
2023-02-15T15:54:41.257Z,93.38
2023-02-15T15:59:47.978Z,93.61
2023-02-15T16:04:51.042Z,93.78
2023-02-15T16:09:58.179Z,93.94
2023-02-15T16:15:13.759Z,94.10
2023-02-15T16:20:20.137Z,94.42
2023-02-15T16:25:48.026Z,94.69
2023-02-15T16:31:15.887Z,95.07
2023-02-15T16:36:23.337Z,95.34
2023-02-15T16:41:31.201Z,95.51
2023-02-15T16:46:37.608Z,95.55
2023-02-15T16:51:45.036Z,95.72
2023-02-15T16:56:48.745Z,95.85
2023-02-15T17:01:53.166Z,95.80
2023-02-15T17:07:06.865Z,96.18
2023-02-15T17:12:11.178Z,96.48
2023-02-15T17:17:16.113Z,96.70
2023-02-15T17:22:28.459Z,96.99
2023-02-15T17:27:34.267Z,97.18
2023-02-15T17:32:39.376Z,97.18
2023-02-15T17:37:46.095Z,97.18
2023-02-15T17:42:49.101Z,97.25
2023-02-15T17:47:52.422Z,97.43
2023-02-15T17:52:57.570Z,97.54
2023-02-15T17:58:01.645Z,97.67
2023-02-15T18:03:23.555Z,97.60
2023-02-15T18:08:47.458Z,97.75
2023-02-15T18:13:50.362Z,97.91
2023-02-15T18:18:53.786Z,97.81
2023-02-15T18:23:57.146Z,98.14
2023-02-15T18:28:59.996Z,97.79
2023-02-15T18:34:03.712Z,98.26
2023-02-15T18:39:30.269Z,98.39
2023-02-15T18:44:33.274Z,98.60
2023-02-15T18:49:36.186Z,98.63
2023-02-15T18:54:39.091Z,98.58
2023-02-15T18:59:42.662Z,98.77
2023-02-15T19:04:46.758Z,98.88
2023-02-15T19:09:53.121Z,98.94
2023-02-15T19:14:57.050Z,99.19
2023-02-15T19:19:59.956Z,99.41
2023-02-15T19:25:06.183Z,99.54
2023-02-15T19:30:18.236Z,99.60
2023-02-15T19:35:26.085Z,99.77
2023-02-15T19:40:31.748Z,100.00
2023-02-15T19:45:34.656Z,100.00
2023-02-15T19:50:37.558Z,100.00
2023-02-15T19:55:40.861Z,100.00
2023-02-15T20:00:43.682Z,100.00
2023-02-15T20:05:47.168Z,100.00
2023-02-15T20:10:50.196Z,100.00
2023-02-15T20:15:53.289Z,100.00
2023-02-15T20:20:56.872Z,100.00
2023-02-15T20:26:02.836Z,100.00
2023-02-15T20:31:06.530Z,100.00
2023-02-15T20:36:15.263Z,100.00
2023-02-15T20:41:39.163Z,100.00
2023-02-15T20:46:42.121Z,100.00
2023-02-15T20:51:47.533Z,100.00
2023-02-15T20:56:51.468Z,100.00
2023-02-15T21:02:01.007Z,100.00
2023-02-15T21:07:04.236Z,100.00
2023-02-15T21:12:13.786Z,100.00
2023-02-15T21:17:17.301Z,100.00
2023-02-15T21:22:21.853Z,100.00
2023-02-15T21:27:24.957Z,100.00
2023-02-15T21:32:28.972Z,100.00
2023-02-15T21:37:35.780Z,100.00
2023-02-15T21:42:57.632Z,100.00
2023-02-15T21:48:01.081Z,100.00
2023-02-15T21:53:06.322Z,100.00
2023-02-15T21:58:19.447Z,100.00
2023-02-15T22:03:24.745Z,100.00
2023-02-15T22:08:28.045Z,99.96
2023-02-15T22:13:34.916Z,100.00
2023-02-15T22:18:37.719Z,100.00
2023-02-15T22:23:40.627Z,100.00
2023-02-15T22:28:44.242Z,100.00
2023-02-15T22:33:50.014Z,100.00
2023-02-15T22:38:54.254Z,100.00
2023-02-15T22:43:57.763Z,100.00
2023-02-15T22:49:00.668Z,100.00
2023-02-15T22:54:03.984Z,100.00
2023-02-15T22:59:14.156Z,100.00
2023-02-15T23:04:23.194Z,100.00
2023-02-15T23:09:26.722Z,100.00
2023-02-15T23:14:35.678Z,100.00
2023-02-15T23:19:38.576Z,100.00
2023-02-15T23:24:41.695Z,100.00
2023-02-15T23:29:45.408Z,100.00
2023-02-15T23:34:48.598Z,100.00
2023-02-15T23:40:10.671Z,100.00
2023-02-15T23:45:22.787Z,100.00
2023-02-15T23:50:28.775Z,100.00
2023-02-15T23:55:37.398Z,100.00
